KRNH/RNH METAR and TAF weather

Enter ICAO airport designator
Station Type Date Time Source
KRNH METAR 2019/10/14 05:35 UTC NOAA

KRNH 140535Z AUTO 00000KT 10SM CLR 00/M01 A2992 RMK AO2 T10021012


Station Type Date Time Source
KRNH Decoded METAR 2019/10/14 05:35 UTC NOAA

New Richmond, New Richmond Municipal Airport, WI, United States (KRNH) 45-08-54N 092-32-17W
Oct 14, 2019 - 01:35 AM EDT / 2019.10.14 0535 UTC
Wind: Calm:0
Visibility: 10 mile(s):0
Sky conditions: clear
Temperature: 31.6 F (-0.2 C)
Dew Point: 29.8 F (-1.2 C)
Relative Humidity: 92%
Pressure (altimeter): 29.92 in. Hg (1013 hPa)
ob: KRNH 140535Z AUTO 00000KT 10SM CLR 00/M01 A2992 RMK AO2 T10021012
cycle: 5

Station Type Date Time Source
KRNH TAF 2019/10/14 06:22 UTC NOAA

TAF KRNH 140520Z 1406/1506 27005KT P6SM SCT050
FM140900 26005KT P6SM SKC
FM141800 21005KT P6SM BKN250
FM142300 VRB03KT P6SM SCT150 BKN250

Example: see airport list